Higginsport, Ohio
Current Conditions -  °F | °C
As of 3:15 PM on Monday 24 Nov 2014 (Local Time) from KFGX Reporting Station
Broken Clouds Broken Clouds  
Wind Chill: 11°   Ceiling: 3000
Heat Index: 11°   Visibility: 10mi
Dew Point:   Wind: 24mph
Humidity: 65%   Direction: 260°W
Pressure: 29.7"   Gusts: 38mph
Location:  38.79°N, 83.97°W
Report Text: KFGX 242015Z AUTO 26021G33KT 10SM BKN030 11/05 A2970 RMK AO2 T01110047
Loading
Personal Weather Stations






























Interactive Weather Map New forecast layout! Learn more

10-Day Weather Forecast

Advertisements
Track Severe Weather on mobile